createdAt,value
2023-04-21T00:00:41.762Z,62.27
2023-04-21T00:02:43.705Z,62.15
2023-04-21T00:04:46.151Z,62.84
2023-04-21T00:06:48.072Z,62.32
2023-04-21T00:08:50.840Z,62.46
2023-04-21T00:10:52.781Z,61.92
2023-04-21T00:12:54.512Z,62.26
2023-04-21T00:14:56.312Z,62.27
2023-04-21T00:17:00.337Z,61.96
2023-04-21T00:19:02.593Z,61.52
2023-04-21T00:21:04.773Z,62.25
2023-04-21T00:23:06.619Z,62.46
2023-04-21T00:25:08.878Z,61.99
2023-04-21T00:27:11.598Z,62.44
2023-04-21T00:29:16.678Z,61.87
2023-04-21T00:31:18.643Z,62.27
2023-04-21T00:33:21.128Z,61.86
2023-04-21T00:35:26.157Z,62.07
2023-04-21T00:37:27.874Z,62.26
2023-04-21T00:39:29.735Z,61.95
2023-04-21T00:41:34.271Z,61.73
2023-04-21T00:43:39.251Z,62.17
2023-04-21T00:45:41.136Z,61.81
2023-04-21T00:47:43.494Z,61.99
2023-04-21T00:49:46.776Z,61.71
2023-04-21T00:51:48.529Z,62.23
2023-04-21T00:53:51.552Z,62.22
2023-04-21T00:55:53.413Z,62.00
2023-04-21T00:57:56.616Z,62.15
2023-04-21T00:59:58.526Z,61.24
2023-04-21T01:02:00.500Z,61.88
2023-04-21T01:04:04.798Z,61.72
2023-04-21T01:06:07.088Z,61.93
2023-04-21T01:08:08.843Z,61.50
2023-04-21T01:10:11.137Z,61.40
2023-04-21T01:12:13.457Z,61.55
2023-04-21T01:14:15.247Z,61.39
2023-04-21T01:16:18.348Z,61.61
2023-04-21T01:18:20.157Z,61.93
2023-04-21T01:20:21.930Z,61.94
2023-04-21T01:22:23.704Z,61.23
2023-04-21T01:24:35.434Z,61.71
2023-04-21T01:26:37.205Z,62.08
2023-04-21T01:28:39.015Z,62.12
2023-04-21T01:30:40.765Z,62.04
2023-04-21T01:32:42.637Z,61.76
2023-04-21T01:34:45.536Z,61.62
2023-04-21T01:36:47.457Z,61.71
2023-04-21T01:38:49.274Z,62.14
2023-04-21T01:40:53.482Z,61.81
2023-04-21T01:42:55.840Z,62.20
2023-04-21T01:44:57.758Z,62.03
2023-04-21T01:46:59.505Z,62.19
2023-04-21T01:49:03.402Z,62.54
2023-04-21T01:51:05.430Z,62.14
2023-04-21T01:53:07.222Z,62.36
2023-04-21T01:55:09.868Z,62.47
2023-04-21T01:57:12.031Z,62.33
2023-04-21T01:59:13.790Z,62.30
2023-04-21T02:01:15.614Z,62.67
2023-04-21T02:03:17.671Z,62.54
2023-04-21T02:05:22.762Z,62.13
2023-04-21T02:07:24.544Z,61.75
2023-04-21T02:09:26.490Z,62.09
2023-04-21T02:11:28.314Z,61.70
2023-04-21T02:13:30.051Z,62.10
2023-04-21T02:15:31.883Z,61.99
2023-04-21T02:17:33.727Z,62.39
2023-04-21T02:19:35.505Z,62.02
2023-04-21T02:21:37.386Z,62.40
2023-04-21T02:23:39.286Z,62.06
2023-04-21T02:25:41.027Z,62.40
2023-04-21T02:27:42.861Z,62.49
2023-04-21T02:29:44.693Z,62.33
2023-04-21T02:32:00.641Z,63.17
2023-04-21T02:34:05.155Z,62.43
2023-04-21T02:36:07.332Z,62.79
2023-04-21T02:38:11.390Z,62.37
2023-04-21T02:40:16.017Z,62.54
2023-04-21T02:42:17.836Z,62.82
2023-04-21T02:44:19.595Z,63.04
2023-04-21T02:46:21.444Z,62.88
2023-04-21T02:48:23.336Z,63.24
2023-04-21T02:50:26.261Z,63.18
2023-04-21T02:52:28.104Z,63.49
2023-04-21T02:54:29.974Z,63.39
2023-04-21T02:56:32.165Z,63.94
2023-04-21T02:58:33.907Z,63.10
2023-04-21T03:00:35.912Z,63.58
2023-04-21T03:02:37.843Z,63.17
2023-04-21T03:04:39.950Z,63.59
2023-04-21T03:06:42.407Z,63.61
2023-04-21T03:08:44.235Z,63.75
2023-04-21T03:10:46.018Z,63.46
2023-04-21T03:12:47.769Z,64.50
2023-04-21T03:14:49.522Z,64.13
2023-04-21T03:16:51.487Z,63.26
2023-04-21T03:18:53.645Z,63.45
2023-04-21T03:21:00.408Z,63.36
2023-04-21T03:23:02.292Z,63.94
2023-04-21T03:25:05.140Z,64.47
2023-04-21T03:27:07.576Z,64.09
2023-04-21T03:29:10.467Z,64.53
2023-04-21T03:31:12.195Z,64.06
2023-04-21T03:33:13.980Z,64.27
2023-04-21T03:35:15.940Z,64.35
2023-04-21T03:37:17.730Z,63.89
2023-04-21T03:39:20.314Z,64.03
2023-04-21T03:41:22.481Z,63.68
2023-04-21T03:43:24.238Z,63.71
2023-04-21T03:45:26.123Z,63.74
2023-04-21T03:47:28.040Z,63.92
2023-04-21T03:49:29.889Z,63.37
2023-04-21T03:51:32.539Z,63.86
2023-04-21T03:53:34.264Z,64.23
2023-04-21T03:55:36.129Z,64.39
2023-04-21T03:57:41.206Z,64.42
2023-04-21T03:59:43.281Z,64.50
2023-04-21T04:01:45.012Z,64.11
2023-04-21T04:03:47.026Z,64.50
2023-04-21T04:05:48.797Z,63.66
2023-04-21T04:07:50.538Z,64.30
2023-04-21T04:09:52.317Z,64.04
2023-04-21T04:11:54.073Z,64.08
2023-04-21T04:13:55.837Z,64.15
2023-04-21T04:15:58.792Z,64.70
2023-04-21T04:18:00.642Z,64.74
2023-04-21T04:20:04.821Z,64.43
2023-04-21T04:22:06.646Z,64.65
2023-04-21T04:24:12.167Z,64.65
2023-04-21T04:26:13.877Z,65.18
2023-04-21T04:28:16.652Z,65.46
2023-04-21T04:30:18.409Z,64.76
2023-04-21T04:32:22.480Z,64.66
2023-04-21T04:34:24.573Z,64.90
2023-04-21T04:36:28.581Z,65.55
2023-04-21T04:38:30.437Z,64.94
2023-04-21T04:40:33.439Z,65.20
2023-04-21T04:42:36.888Z,65.19
2023-04-21T04:44:38.770Z,64.95
2023-04-21T04:46:40.915Z,65.66
2023-04-21T04:48:42.791Z,65.68
2023-04-21T04:50:44.976Z,65.24
2023-04-21T04:52:47.625Z,65.59
2023-04-21T04:54:49.452Z,65.57
2023-04-21T04:56:51.210Z,65.42
2023-04-21T04:58:52.944Z,65.12
2023-04-21T05:00:54.851Z,65.19
2023-04-21T05:02:56.730Z,65.32
2023-04-21T05:04:58.817Z,65.17
2023-04-21T05:07:00.841Z,64.94
2023-04-21T05:09:02.832Z,64.84
2023-04-21T05:11:04.814Z,64.82
2023-04-21T05:13:06.865Z,65.60
2023-04-21T05:15:09.606Z,65.40
2023-04-21T05:17:11.432Z,65.12
2023-04-21T05:19:13.223Z,65.17
2023-04-21T05:21:14.978Z,65.57
2023-04-21T05:23:16.869Z,65.65
2023-04-21T05:25:18.702Z,65.34
2023-04-21T05:27:20.520Z,65.00
2023-04-21T05:29:22.245Z,65.37
2023-04-21T05:31:25.025Z,65.58
2023-04-21T05:33:27.113Z,65.67
2023-04-21T05:35:31.286Z,65.47
2023-04-21T05:37:33.154Z,65.05
2023-04-21T05:39:34.974Z,65.71
2023-04-21T05:41:36.884Z,65.61
2023-04-21T05:43:38.724Z,65.81
2023-04-21T05:45:41.188Z,66.22
2023-04-21T05:47:43.158Z,66.58
2023-04-21T05:49:50.437Z,65.75
2023-04-21T05:51:52.409Z,66.13
2023-04-21T05:53:54.405Z,65.78
2023-04-21T05:55:56.121Z,66.60
2023-04-21T05:57:57.998Z,66.91
2023-04-21T05:59:59.764Z,66.45
2023-04-21T06:02:04.779Z,66.55
2023-04-21T06:04:07.039Z,67.08
2023-04-21T06:06:11.627Z,66.26
2023-04-21T06:08:13.867Z,66.88
2023-04-21T06:10:19.624Z,66.51
2023-04-21T06:12:21.343Z,66.67
2023-04-21T06:14:25.277Z,66.56
2023-04-21T06:16:27.364Z,66.21
2023-04-21T06:18:29.211Z,66.50
2023-04-21T06:20:31.219Z,66.43
2023-04-21T06:22:33.801Z,66.48
2023-04-21T06:24:35.636Z,65.92
2023-04-21T06:26:37.637Z,65.37
2023-04-21T06:28:39.777Z,65.42
2023-04-21T06:30:41.615Z,64.94
2023-04-21T06:32:43.881Z,65.12
2023-04-21T06:34:45.828Z,65.19
2023-04-21T06:36:47.680Z,65.44
2023-04-21T06:38:49.582Z,65.17
2023-04-21T06:40:52.067Z,64.94
2023-04-21T06:42:53.855Z,64.84
2023-04-21T06:44:56.766Z,65.38
2023-04-21T06:46:58.646Z,65.01
2023-04-21T06:49:00.539Z,65.05
2023-04-21T06:51:02.888Z,65.34
2023-04-21T06:53:05.027Z,65.25
2023-04-21T06:55:07.566Z,65.18
2023-04-21T06:57:09.551Z,64.61
2023-04-21T06:59:11.608Z,64.70
2023-04-21T07:01:13.737Z,64.68
2023-04-21T07:03:16.206Z,65.09
2023-04-21T07:05:18.239Z,64.50
2023-04-21T07:07:20.114Z,64.16
2023-04-21T07:09:22.553Z,64.49
2023-04-21T07:11:24.433Z,64.31
2023-04-21T07:13:26.470Z,64.67
2023-04-21T07:15:28.284Z,64.46
2023-04-21T07:17:30.267Z,64.23
2023-04-21T07:19:33.548Z,63.29
2023-04-21T07:21:36.448Z,62.34
2023-04-21T07:23:38.335Z,62.27
2023-04-21T07:25:40.330Z,63.20
2023-04-21T07:27:42.285Z,63.09
2023-04-21T07:29:44.286Z,63.09
2023-04-21T07:31:48.389Z,63.59
2023-04-21T07:33:50.923Z,62.75
2023-04-21T07:35:53.370Z,61.80
2023-04-21T07:37:55.327Z,61.98
2023-04-21T07:39:57.169Z,62.17
2023-04-21T07:41:58.957Z,61.89
2023-04-21T07:44:01.036Z,61.97
2023-04-21T07:46:03.153Z,61.93
2023-04-21T07:48:07.981Z,61.17
2023-04-21T07:50:10.799Z,60.85
2023-04-21T07:52:12.892Z,60.83
2023-04-21T07:54:14.856Z,60.96
2023-04-21T07:56:17.450Z,61.32
2023-04-21T07:58:19.682Z,62.00
2023-04-21T08:00:22.167Z,60.97
2023-04-21T08:02:24.445Z,61.07
2023-04-21T08:04:27.403Z,61.09
2023-04-21T08:06:29.907Z,61.25
2023-04-21T08:08:32.198Z,61.86
2023-04-21T08:10:34.673Z,61.01
2023-04-21T08:12:36.751Z,61.07
2023-04-21T08:14:38.914Z,60.86
2023-04-21T08:16:42.662Z,61.72
2023-04-21T08:18:48.435Z,61.80
2023-04-21T08:20:52.808Z,62.54
2023-04-21T08:22:55.191Z,62.43
2023-04-21T08:24:57.407Z,62.35
2023-04-21T08:26:59.640Z,62.32
2023-04-21T08:29:04.032Z,62.25
2023-04-21T08:31:06.688Z,61.92
2023-04-21T08:33:13.811Z,61.82
2023-04-21T08:35:16.201Z,62.36
2023-04-21T08:37:20.079Z,62.58
2023-04-21T08:39:22.335Z,62.05
2023-04-21T08:41:25.729Z,62.29
2023-04-21T08:43:29.651Z,62.77
2023-04-21T08:45:32.304Z,62.52
2023-04-21T08:47:35.489Z,62.57
2023-04-21T08:49:39.978Z,63.39
2023-04-21T08:51:42.894Z,63.26
2023-04-21T08:53:46.846Z,63.41
2023-04-21T08:56:07.540Z,63.33
2023-04-21T08:58:15.896Z,63.46
2023-04-21T09:00:18.525Z,63.68
2023-04-21T09:02:21.014Z,63.89
2023-04-21T09:04:23.722Z,63.82
2023-04-21T09:06:43.742Z,63.77
2023-04-21T09:08:56.473Z,64.22
2023-04-21T09:11:01.737Z,64.29
2023-04-21T09:13:09.238Z,64.25
2023-04-21T09:15:12.852Z,64.21
2023-04-21T09:17:21.550Z,64.41
2023-04-21T09:19:23.876Z,64.54
2023-04-21T09:21:31.436Z,65.27
2023-04-21T09:23:44.081Z,64.89
2023-04-21T09:25:46.683Z,65.37
2023-04-21T09:27:49.008Z,65.48
2023-04-21T09:29:51.368Z,65.29
2023-04-21T09:31:53.490Z,65.31
2023-04-21T09:34:00.461Z,65.03
2023-04-21T09:36:03.488Z,65.92
2023-04-21T09:38:12.692Z,67.49
2023-04-21T09:40:15.718Z,67.03
2023-04-21T09:42:17.693Z,67.33
2023-04-21T09:44:21.354Z,67.37
2023-04-21T09:46:24.823Z,67.36
2023-04-21T09:48:32.098Z,67.21
2023-04-21T09:51:11.483Z,67.67
2023-04-21T09:52:57.627Z,67.60
2023-04-21T09:55:04.471Z,67.93
2023-04-21T09:57:07.587Z,67.99
2023-04-21T09:59:17.548Z,67.98
2023-04-21T10:01:20.410Z,67.42
2023-04-21T10:03:27.946Z,68.19
2023-04-21T10:05:30.427Z,68.26
2023-04-21T10:07:35.060Z,68.14
2023-04-21T10:09:43.451Z,68.39
2023-04-21T10:11:45.974Z,67.94
2023-04-21T10:13:48.169Z,67.06
2023-04-21T10:16:03.459Z,66.95
2023-04-21T10:18:22.004Z,67.79
2023-04-21T10:20:24.203Z,67.61
2023-04-21T10:22:36.535Z,67.68
2023-04-21T10:24:41.389Z,68.09
2023-04-21T10:26:43.644Z,69.44
2023-04-21T10:28:48.765Z,69.35
2023-04-21T10:30:51.646Z,69.40
2023-04-21T10:33:04.910Z,69.70
2023-04-21T10:35:10.166Z,70.78
2023-04-21T10:37:15.953Z,70.45
2023-04-21T10:39:31.756Z,68.97
2023-04-21T10:41:35.519Z,68.19
2023-04-21T10:43:48.171Z,68.22
2023-04-21T10:45:51.615Z,68.34
2023-04-21T10:47:54.404Z,68.35
2023-04-21T10:49:58.519Z,68.28
2023-04-21T10:52:02.742Z,69.12
2023-04-21T10:54:06.216Z,69.92
2023-04-21T10:56:08.596Z,69.40
2023-04-21T10:58:10.870Z,69.80
2023-04-21T11:00:19.318Z,69.79
2023-04-21T11:02:21.891Z,69.27
2023-04-21T11:04:24.880Z,69.18
2023-04-21T11:06:27.647Z,69.46
2023-04-21T11:08:30.926Z,69.31
2023-04-21T11:10:43.953Z,69.15
2023-04-21T11:12:46.226Z,69.92
2023-04-21T11:14:48.915Z,69.97
2023-04-21T11:16:51.662Z,69.70
2023-04-21T11:18:56.541Z,68.33
2023-04-21T11:21:08.802Z,68.49
2023-04-21T11:23:17.397Z,67.64
2023-04-21T11:25:19.806Z,66.27
2023-04-21T11:27:23.868Z,66.43
2023-04-21T11:29:26.246Z,66.88
2023-04-21T11:31:31.254Z,65.61
2023-04-21T11:33:38.271Z,65.44
2023-04-21T11:35:42.178Z,64.69
2023-04-21T11:37:44.226Z,64.13
2023-04-21T11:39:46.469Z,62.66
2023-04-21T11:41:50.113Z,62.18
2023-04-21T11:43:53.347Z,63.20
2023-04-21T11:45:55.588Z,64.34
2023-04-21T11:48:15.785Z,65.15
2023-04-21T11:50:32.680Z,63.92
2023-04-21T11:52:37.751Z,63.54
2023-04-21T11:54:40.086Z,62.21
2023-04-21T11:56:47.718Z,61.72
2023-04-21T11:58:51.971Z,61.76
2023-04-21T12:00:54.118Z,61.79
2023-04-21T12:02:57.321Z,62.23
2023-04-21T12:05:09.294Z,62.60
2023-04-21T12:07:11.878Z,62.11
2023-04-21T12:09:19.487Z,62.91
2023-04-21T12:11:21.560Z,62.94
2023-04-21T12:13:24.448Z,62.89
2023-04-21T12:15:26.807Z,62.65
2023-04-21T12:17:38.975Z,62.48
2023-04-21T12:19:42.765Z,61.54
2023-04-21T12:21:44.869Z,61.54
2023-04-21T12:23:47.067Z,61.50
2023-04-21T12:25:49.060Z,62.58
2023-04-21T12:27:54.407Z,61.45
2023-04-21T12:29:56.515Z,61.72
2023-04-21T12:31:58.800Z,61.19
2023-04-21T12:34:01.110Z,61.84
2023-04-21T12:36:03.257Z,61.15
2023-04-21T12:38:05.894Z,61.71
2023-04-21T12:40:09.033Z,61.08
2023-04-21T12:42:11.601Z,60.75
2023-04-21T12:44:14.684Z,60.24
2023-04-21T12:46:17.390Z,59.08
2023-04-21T12:48:20.792Z,58.38
2023-04-21T12:50:23.276Z,58.57
2023-04-21T12:52:25.807Z,58.75
2023-04-21T12:54:29.059Z,58.09
2023-04-21T12:56:31.594Z,58.48
2023-04-21T12:58:34.112Z,59.85
2023-04-21T13:00:36.851Z,59.45
2023-04-21T13:02:39.933Z,60.52
2023-04-21T13:04:42.929Z,60.83
2023-04-21T13:06:45.239Z,60.32
2023-04-21T13:08:47.896Z,60.23
2023-04-21T13:10:50.206Z,59.42
2023-04-21T13:12:52.939Z,58.43
2023-04-21T13:14:55.433Z,56.88
2023-04-21T13:16:58.066Z,56.92
2023-04-21T13:19:00.875Z,55.63
2023-04-21T13:21:03.477Z,55.97
2023-04-21T13:23:11.512Z,54.76
2023-04-21T13:25:14.456Z,53.83
2023-04-21T13:27:16.711Z,53.10
2023-04-21T13:29:19.017Z,53.86
2023-04-21T13:31:21.492Z,54.17
2023-04-21T13:33:24.198Z,53.90
2023-04-21T13:35:27.062Z,54.48
2023-04-21T13:37:29.567Z,54.88
2023-04-21T13:39:32.074Z,54.43
2023-04-21T13:41:35.277Z,54.21
2023-04-21T13:43:37.726Z,54.12
2023-04-21T13:45:40.122Z,54.01
2023-04-21T13:47:42.775Z,54.26
2023-04-21T13:49:45.157Z,53.80
2023-04-21T13:51:47.277Z,53.58
2023-04-21T13:53:49.500Z,53.98
2023-04-21T13:55:53.322Z,53.32
2023-04-21T13:57:55.643Z,53.04
2023-04-21T13:59:57.989Z,52.25
2023-04-21T14:02:00.744Z,52.35
2023-04-21T14:04:03.964Z,52.49
2023-04-21T14:06:06.724Z,52.19
2023-04-21T14:08:09.205Z,52.28
2023-04-21T14:10:12.518Z,52.41
2023-04-21T14:12:14.858Z,52.38
2023-04-21T14:14:27.587Z,52.62
2023-04-21T14:16:39.749Z,52.30
2023-04-21T14:18:45.438Z,52.26
2023-04-21T14:20:47.805Z,51.66
2023-04-21T14:22:50.374Z,51.51
2023-04-21T14:24:52.402Z,51.34
2023-04-21T14:26:55.019Z,51.17
2023-04-21T14:28:57.482Z,50.78
2023-04-21T14:30:59.687Z,51.72
2023-04-21T14:33:02.479Z,51.05
2023-04-21T14:35:06.073Z,50.62
2023-04-21T14:37:08.443Z,49.60
2023-04-21T14:39:10.975Z,50.30
2023-04-21T14:41:13.720Z,50.42
2023-04-21T14:43:16.657Z,50.56
2023-04-21T14:45:19.373Z,50.43
2023-04-21T14:47:23.036Z,50.19
2023-04-21T14:49:25.668Z,49.95
2023-04-21T14:51:28.400Z,50.13
2023-04-21T14:53:30.956Z,50.28
2023-04-21T14:55:34.179Z,49.78
2023-04-21T14:57:36.807Z,49.81
2023-04-21T14:59:39.580Z,50.29
2023-04-21T15:01:42.126Z,50.06
2023-04-21T15:03:46.123Z,50.84
2023-04-21T15:05:49.470Z,50.97
2023-04-21T15:07:52.244Z,51.22
2023-04-21T15:09:55.909Z,50.94
2023-04-21T15:11:58.091Z,51.07
2023-04-21T15:14:00.847Z,50.25
2023-04-21T15:16:03.564Z,49.19
2023-04-21T15:18:06.136Z,49.24
2023-04-21T15:20:10.508Z,49.34
2023-04-21T15:22:13.163Z,49.60
2023-04-21T15:24:15.749Z,49.87
2023-04-21T15:26:18.026Z,49.59
2023-04-21T15:28:20.473Z,48.99
2023-04-21T15:30:23.223Z,48.91
2023-04-21T15:32:25.889Z,48.83
2023-04-21T15:34:29.692Z,48.68
2023-04-21T15:36:32.536Z,48.30
2023-04-21T15:38:35.478Z,48.89
2023-04-21T15:40:46.280Z,48.84
2023-04-21T15:42:55.691Z,48.27
2023-04-21T15:44:58.217Z,48.95
2023-04-21T15:47:00.651Z,48.71
2023-04-21T15:49:04.304Z,49.01
2023-04-21T15:51:07.378Z,48.90
2023-04-21T15:53:09.561Z,48.18
2023-04-21T15:55:12.942Z,47.14
2023-04-21T15:57:15.804Z,46.51
2023-04-21T15:59:18.263Z,45.51
2023-04-21T16:01:21.829Z,44.86
2023-04-21T16:03:24.874Z,44.72
2023-04-21T16:05:29.110Z,44.07
2023-04-21T16:07:31.652Z,44.15
2023-04-21T16:09:34.420Z,43.75
2023-04-21T16:11:36.787Z,43.67
2023-04-21T16:13:39.010Z,43.98
2023-04-21T16:15:44.002Z,44.41
2023-04-21T16:17:46.625Z,44.76
2023-04-21T16:19:49.252Z,44.71
2023-04-21T16:21:51.485Z,44.37
2023-04-21T16:23:54.176Z,44.33
2023-04-21T16:25:56.876Z,44.61
2023-04-21T16:27:59.492Z,44.05
2023-04-21T16:30:01.913Z,45.37
2023-04-21T16:32:04.633Z,44.55
2023-04-21T16:34:07.322Z,45.19
2023-04-21T16:36:09.757Z,45.51
2023-04-21T16:38:13.969Z,45.35
2023-04-21T16:40:16.449Z,45.51
2023-04-21T16:42:18.549Z,45.25
2023-04-21T16:44:21.170Z,44.67
2023-04-21T16:46:25.551Z,44.71
2023-04-21T16:48:28.590Z,44.55
2023-04-21T16:50:31.259Z,45.13
2023-04-21T16:52:33.717Z,45.52
2023-04-21T16:54:39.027Z,45.72
2023-04-21T16:56:41.576Z,45.71
2023-04-21T16:58:43.966Z,45.46
2023-04-21T17:00:46.615Z,44.99
2023-04-21T17:02:49.158Z,44.59
2023-04-21T17:04:52.089Z,44.62
2023-04-21T17:06:54.214Z,43.59
2023-04-21T17:09:00.039Z,43.57
2023-04-21T17:11:02.599Z,43.76
2023-04-21T17:13:06.347Z,43.29
2023-04-21T17:15:09.554Z,43.94
2023-04-21T17:17:11.796Z,42.91
2023-04-21T17:19:14.206Z,43.02
2023-04-21T17:21:19.730Z,43.78
2023-04-21T17:23:22.197Z,44.04
2023-04-21T17:25:24.355Z,43.94
2023-04-21T17:27:26.552Z,45.11
2023-04-21T17:29:28.922Z,45.00
2023-04-21T17:31:33.389Z,44.78
2023-04-21T17:33:38.339Z,45.58
2023-04-21T17:35:46.019Z,45.30
2023-04-21T17:37:54.759Z,44.86
2023-04-21T17:39:59.209Z,45.28
2023-04-21T17:42:03.297Z,45.28
2023-04-21T17:44:05.570Z,45.14
2023-04-21T17:46:10.367Z,46.10
2023-04-21T17:48:12.773Z,45.68
2023-04-21T17:50:15.117Z,45.38
2023-04-21T17:52:17.481Z,44.69
2023-04-21T17:54:19.672Z,44.47
2023-04-21T17:56:22.564Z,43.98
2023-04-21T17:58:26.449Z,45.09
2023-04-21T18:00:34.612Z,45.05
2023-04-21T18:02:36.891Z,45.42
2023-04-21T18:04:39.702Z,46.48
2023-04-21T18:06:42.440Z,46.00
2023-04-21T18:08:47.269Z,46.28
2023-04-21T18:10:49.166Z,46.59
2023-04-21T18:12:51.468Z,46.02
2023-04-21T18:14:53.655Z,46.19
2023-04-21T18:16:55.766Z,45.58
2023-04-21T18:19:01.979Z,46.23
2023-04-21T18:21:04.607Z,46.44
2023-04-21T18:23:06.686Z,46.19
2023-04-21T18:25:09.183Z,46.49
2023-04-21T18:27:11.560Z,46.90
2023-04-21T18:29:17.987Z,46.61
2023-04-21T18:31:21.903Z,46.74
2023-04-21T18:33:27.517Z,46.91
2023-04-21T18:35:29.803Z,47.20
2023-04-21T18:37:32.038Z,47.62
2023-04-21T18:39:34.169Z,48.15
2023-04-21T18:41:37.305Z,47.95
2023-04-21T18:43:39.511Z,48.72
2023-04-21T18:45:41.964Z,48.97
2023-04-21T18:47:45.958Z,49.41
2023-04-21T18:49:48.227Z,49.50
2023-04-21T18:51:50.363Z,49.44
2023-04-21T18:53:52.500Z,49.88
2023-04-21T18:55:54.554Z,50.29
2023-04-21T18:57:59.370Z,50.53
2023-04-21T19:00:01.722Z,50.72
2023-04-21T19:02:06.480Z,50.65
2023-04-21T19:04:10.357Z,50.77
2023-04-21T19:06:12.593Z,50.68
2023-04-21T19:08:14.911Z,51.35
2023-04-21T19:10:17.090Z,51.93
2023-04-21T19:12:20.277Z,52.42
2023-04-21T19:14:22.669Z,52.39
2023-04-21T19:16:24.964Z,52.71
2023-04-21T19:18:26.951Z,52.45
2023-04-21T19:20:29.959Z,52.79
2023-04-21T19:22:33.671Z,53.43
2023-04-21T19:24:39.024Z,53.65
2023-04-21T19:26:41.339Z,53.74
2023-04-21T19:28:43.638Z,53.27
2023-04-21T19:30:45.494Z,53.04
2023-04-21T19:32:47.619Z,53.02
2023-04-21T19:34:49.729Z,53.26
2023-04-21T19:36:53.031Z,52.98
2023-04-21T19:38:55.111Z,53.20
2023-04-21T19:40:57.565Z,53.34
2023-04-21T19:42:59.359Z,53.52
2023-04-21T19:45:01.225Z,53.77
2023-04-21T19:47:03.230Z,54.42
2023-04-21T19:49:05.296Z,54.99
2023-04-21T19:51:07.786Z,55.11
2023-04-21T19:53:14.623Z,54.97
2023-04-21T19:55:16.665Z,55.43
2023-04-21T19:57:18.722Z,55.08
2023-04-21T19:59:20.764Z,55.46
2023-04-21T20:01:22.912Z,55.76
2023-04-21T20:03:25.022Z,55.71
2023-04-21T20:05:27.122Z,55.64
2023-04-21T20:07:29.052Z,55.80
2023-04-21T20:09:31.227Z,55.90
2023-04-21T20:11:34.151Z,55.95
2023-04-21T20:13:36.212Z,55.69
2023-04-21T20:15:39.537Z,55.96
2023-04-21T20:17:47.356Z,56.15
2023-04-21T20:19:49.337Z,55.86
2023-04-21T20:21:51.197Z,56.05
2023-04-21T20:23:56.456Z,55.85
2023-04-21T20:25:58.511Z,56.00
2023-04-21T20:28:00.758Z,56.17
2023-04-21T20:30:03.085Z,56.29
2023-04-21T20:32:05.187Z,56.19
2023-04-21T20:34:08.508Z,56.54
2023-04-21T20:36:12.176Z,56.60
2023-04-21T20:38:14.671Z,56.76
2023-04-21T20:40:18.894Z,56.92
2023-04-21T20:42:21.961Z,56.99
2023-04-21T20:44:24.594Z,57.13
2023-04-21T20:46:27.605Z,57.73
2023-04-21T20:48:29.571Z,57.91
2023-04-21T20:50:31.421Z,57.54
2023-04-21T20:52:33.217Z,57.56
2023-04-21T20:54:35.553Z,57.30
2023-04-21T20:56:39.931Z,57.25
2023-04-21T20:58:41.750Z,57.72
2023-04-21T21:00:43.696Z,57.53
2023-04-21T21:02:45.872Z,57.42
2023-04-21T21:04:47.930Z,57.64
2023-04-21T21:06:49.857Z,57.50
2023-04-21T21:08:54.153Z,57.57
2023-04-21T21:10:56.194Z,56.89
2023-04-21T21:13:00.231Z,57.72
2023-04-21T21:15:02.110Z,57.85
2023-04-21T21:17:03.952Z,57.79
2023-04-21T21:19:06.073Z,57.58
2023-04-21T21:21:08.273Z,57.15
2023-04-21T21:23:10.091Z,57.49
2023-04-21T21:25:12.113Z,57.62
2023-04-21T21:27:13.924Z,57.48
2023-04-21T21:29:15.757Z,57.85
2023-04-21T21:31:17.648Z,57.67
2023-04-21T21:33:20.971Z,57.70
2023-04-21T21:35:23.176Z,58.62
2023-04-21T21:37:25.126Z,58.26
2023-04-21T21:39:27.281Z,57.65
2023-04-21T21:41:32.262Z,57.64
2023-04-21T21:43:34.281Z,57.87
2023-04-21T21:45:36.211Z,57.95
2023-04-21T21:47:41.720Z,58.32
2023-04-21T21:49:44.943Z,57.92
2023-04-21T21:51:46.714Z,58.26
2023-04-21T21:53:48.569Z,58.38
2023-04-21T21:55:50.451Z,58.12
2023-04-21T21:57:52.722Z,57.81
2023-04-21T21:59:54.614Z,57.79
2023-04-21T22:01:56.484Z,58.08
2023-04-21T22:03:58.458Z,58.03
2023-04-21T22:06:00.979Z,58.08
2023-04-21T22:08:04.201Z,58.27
2023-04-21T22:10:07.023Z,57.72
2023-04-21T22:12:09.458Z,57.68
2023-04-21T22:14:21.801Z,58.40
2023-04-21T22:16:25.651Z,57.73
2023-04-21T22:18:27.702Z,58.52
2023-04-21T22:20:30.279Z,58.76
2023-04-21T22:22:32.213Z,59.12
2023-04-21T22:24:34.366Z,58.51
2023-04-21T22:26:36.540Z,59.03
2023-04-21T22:28:38.875Z,58.61
2023-04-21T22:30:41.072Z,59.29
2023-04-21T22:32:43.569Z,58.69
2023-04-21T22:34:45.996Z,59.13
2023-04-21T22:36:47.782Z,58.87
2023-04-21T22:38:49.654Z,59.17
2023-04-21T22:40:51.550Z,58.91
2023-04-21T22:42:54.206Z,58.97
2023-04-21T22:44:56.442Z,58.72
2023-04-21T22:47:00.870Z,58.80
2023-04-21T22:49:03.954Z,58.69
2023-04-21T22:51:07.643Z,59.12
2023-04-21T22:53:09.415Z,58.70
2023-04-21T22:55:11.220Z,58.91
2023-04-21T22:57:14.523Z,58.86
2023-04-21T22:59:16.963Z,59.65
2023-04-21T23:01:19.133Z,59.56
2023-04-21T23:03:22.372Z,59.66
2023-04-21T23:05:24.352Z,59.65
2023-04-21T23:07:26.155Z,59.67
2023-04-21T23:09:28.024Z,59.85
2023-04-21T23:11:29.947Z,59.72
2023-04-21T23:13:33.067Z,59.31
2023-04-21T23:15:34.891Z,59.77
2023-04-21T23:17:36.742Z,59.45
2023-04-21T23:19:38.881Z,59.53
2023-04-21T23:21:41.092Z,60.18
2023-04-21T23:23:43.076Z,60.06
2023-04-21T23:25:45.474Z,59.96
2023-04-21T23:27:47.455Z,60.32
2023-04-21T23:29:49.286Z,60.74
2023-04-21T23:31:51.248Z,60.47
2023-04-21T23:33:53.390Z,60.96
2023-04-21T23:35:56.434Z,61.57
2023-04-21T23:37:58.310Z,61.09
2023-04-21T23:40:00.071Z,61.13
2023-04-21T23:42:02.780Z,61.16
2023-04-21T23:44:04.558Z,61.29
2023-04-21T23:46:06.411Z,61.28
2023-04-21T23:48:11.906Z,60.60
2023-04-21T23:50:13.986Z,61.53
2023-04-21T23:52:15.826Z,61.60
2023-04-21T23:54:17.675Z,61.55
2023-04-21T23:56:19.438Z,61.32
2023-04-21T23:58:21.188Z,61.84
